createdAt,value
2018-10-12T00:00:17.876Z,0
2018-10-12T00:02:58.106Z,0
2018-10-12T00:03:59.595Z,0
2018-10-12T00:06:40.714Z,0
2018-10-12T00:07:39.203Z,0
2018-10-12T00:08:37.760Z,0
2018-10-12T00:11:38.022Z,0
2018-10-12T00:12:37.120Z,0
2018-10-12T00:13:42.554Z,0
2018-10-12T00:14:41.706Z,0
2018-10-12T00:15:46.370Z,0
2018-10-12T00:16:45.098Z,0
2018-10-12T00:17:44.312Z,0
2018-10-12T00:18:44.708Z,0
2018-10-12T00:19:45.260Z,0
2018-10-12T00:20:46.707Z,0
2018-10-12T00:21:45.110Z,0
2018-10-12T00:22:45.242Z,0
2018-10-12T00:23:45.705Z,0
2018-10-12T00:24:44.056Z,0
2018-10-12T00:25:45.258Z,0
2018-10-12T00:26:45.704Z,0
2018-10-12T00:30:25.707Z,0
2018-10-12T00:31:23.593Z,0
2018-10-12T00:34:06.775Z,0
2018-10-12T00:36:50.205Z,0
2018-10-12T00:37:47.434Z,0
2018-10-12T00:38:46.786Z,0
2018-10-12T00:39:45.288Z,0
2018-10-12T00:42:54.938Z,0
2018-10-12T00:43:54.788Z,0
2018-10-12T00:44:53.305Z,0
2018-10-12T00:45:54.820Z,0
2018-10-12T00:46:55.282Z,0
2018-10-12T00:47:53.783Z,0
2018-10-12T00:48:52.370Z,0
2018-10-12T00:49:51.549Z,0
2018-10-12T00:50:51.359Z,0
2018-10-12T00:51:51.868Z,0
2018-10-12T00:52:51.273Z,0
2018-10-12T00:53:52.293Z,0
2018-10-12T00:54:52.459Z,0
2018-10-12T00:55:51.513Z,0
2018-10-12T00:56:50.014Z,0
2018-10-12T00:57:51.186Z,0
2018-10-12T00:58:50.884Z,0
2018-10-12T01:06:05.357Z,0
2018-10-12T01:07:02.959Z,0
2018-10-12T01:08:03.348Z,0
2018-10-12T01:09:01.540Z,0
2018-10-12T01:10:01.624Z,0
2018-10-12T01:11:00.877Z,0
2018-10-12T01:12:01.431Z,0
2018-10-12T01:12:59.564Z,0
2018-10-12T01:13:58.133Z,0
2018-10-12T01:15:00.353Z,0
2018-10-12T01:15:57.450Z,0
2018-10-12T01:16:55.982Z,0
2018-10-12T01:17:55.361Z,0
2018-10-12T01:20:35.947Z,0
2018-10-12T01:21:35.363Z,0
2018-10-12T01:22:34.365Z,0
2018-10-12T01:23:33.608Z,0
2018-10-12T01:24:32.861Z,0
2018-10-12T01:25:31.369Z,0
2018-10-12T01:26:31.855Z,0
2018-10-12T01:27:36.364Z,0
2018-10-12T01:28:33.511Z,0
2018-10-12T01:29:32.867Z,0
2018-10-12T01:30:30.809Z,0
2018-10-12T01:31:32.297Z,0
2018-10-12T01:32:31.680Z,0
2018-10-12T01:33:34.371Z,0
2018-10-12T01:34:31.970Z,0
2018-10-12T01:35:31.372Z,0
2018-10-12T01:36:31.861Z,0
2018-10-12T01:37:31.868Z,0
2018-10-12T01:38:30.367Z,0
2018-10-12T01:39:30.385Z,0
2018-10-12T01:40:31.861Z,0
2018-10-12T01:41:31.284Z,0
2018-10-12T01:44:11.645Z,0
2018-10-12T01:46:52.867Z,0
2018-10-12T01:47:51.507Z,0
2018-10-12T01:48:50.882Z,0
2018-10-12T01:49:52.398Z,0
2018-10-12T01:50:51.001Z,0
2018-10-12T01:51:51.365Z,0
2018-10-12T01:52:48.907Z,0
2018-10-12T01:53:48.374Z,0
2018-10-12T01:54:48.826Z,0
2018-10-12T01:55:49.875Z,0
2018-10-12T01:56:51.006Z,0
2018-10-12T01:57:51.051Z,0
2018-10-12T01:58:50.985Z,0
2018-10-12T01:59:52.272Z,0
2018-10-12T02:00:51.303Z,0
2018-10-12T02:03:32.717Z,0
2018-10-12T02:04:35.876Z,0
2018-10-12T02:05:33.943Z,0
2018-10-12T02:06:34.374Z,0
2018-10-12T02:07:36.372Z,0
2018-10-12T02:08:35.876Z,0
2018-10-12T02:09:33.270Z,0
2018-10-12T02:10:34.524Z,0
2018-10-12T02:11:34.377Z,0
2018-10-12T02:12:32.680Z,0
2018-10-12T02:15:18.718Z,0
2018-10-12T02:16:16.369Z,0
2018-10-12T02:17:16.221Z,0
2018-10-12T02:18:17.393Z,0
2018-10-12T02:19:18.700Z,0
2018-10-12T02:20:17.880Z,0
2018-10-12T02:21:16.405Z,0
2018-10-12T02:22:15.621Z,0
2018-10-12T02:23:14.915Z,0
2018-10-12T02:24:17.992Z,0
2018-10-12T02:25:17.317Z,0
2018-10-12T02:26:17.614Z,0
2018-10-12T02:29:00.965Z,0
2018-10-12T02:30:01.173Z,0
2018-10-12T02:31:00.542Z,0
2018-10-12T02:32:02.231Z,0
2018-10-12T02:33:00.821Z,0
2018-10-12T02:34:03.210Z,0
2018-10-12T02:35:01.704Z,0
2018-10-12T02:36:02.206Z,0
2018-10-12T02:37:00.692Z,0
2018-10-12T02:38:04.757Z,0
2018-10-12T02:40:52.723Z,0
2018-10-12T02:41:51.464Z,0
2018-10-12T02:44:33.215Z,0
2018-10-12T02:45:31.715Z,0
2018-10-12T02:46:30.368Z,0
2018-10-12T02:49:10.648Z,0
2018-10-12T02:50:12.717Z,0
2018-10-12T02:51:12.881Z,0
2018-10-12T02:53:54.786Z,0
2018-10-12T02:56:38.900Z,0
2018-10-12T02:57:38.965Z,0
2018-10-12T02:58:39.312Z,0
2018-10-12T03:01:26.955Z,0
2018-10-12T03:02:24.593Z,0
2018-10-12T03:03:25.615Z,0
2018-10-12T03:04:25.451Z,0
2018-10-12T03:05:23.453Z,0
2018-10-12T03:06:23.473Z,0
2018-10-12T03:07:22.459Z,0
2018-10-12T03:08:23.485Z,0
2018-10-12T03:09:22.457Z,0
2018-10-12T03:12:25.541Z,0
2018-10-12T03:13:24.837Z,0
2018-10-12T03:14:23.384Z,0
2018-10-12T03:15:22.820Z,0
2018-10-12T03:18:03.039Z,0
2018-10-12T03:19:08.801Z,0
2018-10-12T03:20:10.305Z,0
2018-10-12T03:21:08.708Z,0
2018-10-12T03:22:08.379Z,0
2018-10-12T03:23:11.301Z,0
2018-10-12T03:24:10.815Z,0
2018-10-12T03:25:09.175Z,0
2018-10-12T03:26:07.733Z,0
2018-10-12T03:27:15.319Z,0
2018-10-12T03:28:15.331Z,0
2018-10-12T03:29:14.928Z,0
2018-10-12T03:30:14.805Z,0
2018-10-12T03:31:13.493Z,0
2018-10-12T03:32:12.807Z,0
2018-10-12T03:33:11.531Z,0
2018-10-12T03:34:10.664Z,0
2018-10-12T03:35:09.815Z,0
2018-10-12T03:36:09.807Z,0
2018-10-12T03:37:07.411Z,0
2018-10-12T03:38:08.312Z,0
2018-10-12T03:39:06.848Z,0
2018-10-12T03:40:07.957Z,0
2018-10-12T03:41:07.835Z,0
2018-10-12T03:42:06.327Z,0
2018-10-12T03:43:06.334Z,0
2018-10-12T03:44:04.293Z,0
2018-10-12T03:45:03.627Z,0
2018-10-12T03:46:03.315Z,0
2018-10-12T03:47:01.887Z,0
2018-10-12T03:48:02.963Z,0
2018-10-12T03:49:03.384Z,0
2018-10-12T03:50:02.925Z,0
2018-10-12T03:51:03.011Z,0
2018-10-12T03:52:11.318Z,0
2018-10-12T03:53:11.316Z,0
2018-10-12T03:54:11.486Z,0
2018-10-12T03:55:10.601Z,0
2018-10-12T03:56:13.324Z,0
2018-10-12T03:57:13.817Z,0
2018-10-12T03:58:12.479Z,0
2018-10-12T03:59:12.613Z,0
2018-10-12T04:00:13.131Z,0
2018-10-12T04:01:12.856Z,0
2018-10-12T04:02:12.814Z,0
2018-10-12T04:04:52.049Z,0
2018-10-12T04:08:33.316Z,0
2018-10-12T04:09:31.340Z,0
2018-10-12T04:10:33.326Z,0
2018-10-12T04:11:31.873Z,0
2018-10-12T04:12:32.405Z,0
2018-10-12T04:13:34.323Z,0
2018-10-12T04:14:39.904Z,0
2018-10-12T04:15:39.320Z,0
2018-10-12T04:16:40.326Z,0
2018-10-12T04:17:43.328Z,0
2018-10-12T04:18:42.342Z,0
2018-10-12T04:19:44.373Z,0
2018-10-12T04:20:42.804Z,0
2018-10-12T04:21:41.302Z,0
2018-10-12T04:22:40.341Z,0
2018-10-12T04:23:39.966Z,0
2018-10-12T04:24:39.257Z,0
2018-10-12T04:25:39.337Z,0
2018-10-12T04:26:41.892Z,0
2018-10-12T04:27:43.959Z,0
2018-10-12T04:30:25.992Z,0
2018-10-12T04:33:06.445Z,0
2018-10-12T04:34:05.869Z,0
2018-10-12T04:35:05.864Z,0
2018-10-12T04:36:04.373Z,0
2018-10-12T04:37:05.339Z,0
2018-10-12T04:38:04.475Z,0
2018-10-12T04:39:03.125Z,0
2018-10-12T04:40:01.674Z,0
2018-10-12T04:41:00.495Z,0
2018-10-12T04:41:59.891Z,0
2018-10-12T04:42:59.333Z,0
2018-10-12T04:43:59.374Z,0
2018-10-12T04:44:56.791Z,0
2018-10-12T04:45:58.334Z,0
2018-10-12T04:46:57.128Z,0
2018-10-12T04:47:56.344Z,0
2018-10-12T04:48:57.654Z,0
2018-10-12T04:58:29.356Z,0
2018-10-12T05:01:29.619Z,0
2018-10-12T05:02:30.534Z,0
2018-10-12T05:03:29.039Z,0
2018-10-12T05:04:27.037Z,0
2018-10-12T05:05:24.700Z,0
2018-10-12T05:06:23.791Z,0
2018-10-12T05:07:23.089Z,0
2018-10-12T05:08:24.864Z,0
2018-10-12T05:09:24.945Z,0
2018-10-12T05:10:26.045Z,0
2018-10-12T05:11:32.400Z,0
2018-10-12T05:12:32.761Z,0
2018-10-12T05:13:32.750Z,0
2018-10-12T05:14:30.542Z,0
2018-10-12T05:15:28.407Z,0
2018-10-12T05:16:26.959Z,0
2018-10-12T05:18:12.044Z,4
2018-10-12T05:19:11.482Z,4
2018-10-12T05:20:10.638Z,0
2018-10-12T05:21:09.196Z,0
2018-10-12T05:22:10.182Z,4
2018-10-12T05:23:08.123Z,0
2018-10-12T05:24:12.556Z,4
2018-10-12T05:25:10.658Z,8
2018-10-12T05:26:12.769Z,4
2018-10-12T05:27:13.572Z,4
2018-10-12T05:28:15.097Z,8
2018-10-12T05:29:13.620Z,8
2018-10-12T05:30:13.196Z,8
2018-10-12T05:31:19.300Z,12
2018-10-12T05:32:21.599Z,12
2018-10-12T05:33:21.152Z,16
2018-10-12T05:34:21.049Z,16
2018-10-12T05:35:19.984Z,20
2018-10-12T05:36:19.056Z,24
2018-10-12T05:37:17.558Z,24
2018-10-12T05:38:27.067Z,28
2018-10-12T05:39:25.556Z,36
2018-10-12T05:40:24.863Z,36
2018-10-12T05:41:25.061Z,40
2018-10-12T05:42:24.586Z,44
2018-10-12T05:43:24.749Z,52
2018-10-12T05:44:24.665Z,56
2018-10-12T05:45:24.095Z,60
2018-10-12T05:46:23.560Z,68
2018-10-12T05:47:25.566Z,72
2018-10-12T05:48:23.504Z,80
2018-10-12T05:49:24.732Z,84
2018-10-12T05:50:24.572Z,88
2018-10-12T05:51:25.209Z,92
2018-10-12T05:52:24.447Z,96
2018-10-12T05:53:23.588Z,100
2018-10-12T05:54:23.192Z,108
2018-10-12T05:57:04.291Z,124
2018-10-12T05:58:05.069Z,132
2018-10-12T05:59:05.602Z,140
2018-10-12T06:00:06.592Z,144
2018-10-12T06:01:05.887Z,148
2018-10-12T06:02:04.495Z,152
2018-10-12T06:03:03.045Z,156
2018-10-12T06:04:02.061Z,160
2018-10-12T06:05:02.118Z,168
2018-10-12T06:06:00.746Z,176
2018-10-12T06:07:01.128Z,180
2018-10-12T06:07:59.740Z,188
2018-10-12T06:08:59.608Z,196
2018-10-12T06:10:03.185Z,204
2018-10-12T06:11:03.607Z,204
2018-10-12T06:12:03.216Z,212
2018-10-12T06:13:05.070Z,224
2018-10-12T06:14:02.569Z,228
2018-10-12T06:15:02.061Z,232
2018-10-12T06:16:01.109Z,240
2018-10-12T06:18:41.377Z,260
2018-10-12T06:21:24.587Z,268
2018-10-12T06:22:23.145Z,280
2018-10-12T06:23:23.173Z,284
2018-10-12T06:24:25.127Z,308
2018-10-12T06:27:06.571Z,532
2018-10-12T06:28:05.077Z,528
2018-10-12T06:29:05.570Z,472
2018-10-12T06:30:07.067Z,448
2018-10-12T06:31:09.095Z,424
2018-10-12T06:32:09.602Z,476
2018-10-12T06:33:09.099Z,596
2018-10-12T06:34:10.556Z,568
2018-10-12T06:35:10.377Z,472
2018-10-12T06:36:10.649Z,412
2018-10-12T06:37:11.143Z,372
2018-10-12T06:38:11.183Z,376
2018-10-12T06:39:10.578Z,384
2018-10-12T06:41:53.839Z,404
2018-10-12T06:42:51.572Z,400
2018-10-12T06:43:51.488Z,400
2018-10-12T06:44:50.963Z,420
2018-10-12T06:45:50.943Z,396
2018-10-12T06:46:50.353Z,440
2018-10-12T06:47:50.192Z,436
2018-10-12T06:48:52.000Z,428
2018-10-12T06:49:51.078Z,420
2018-10-12T06:50:50.615Z,376
2018-10-12T06:51:49.201Z,376
2018-10-12T06:52:48.643Z,384
2018-10-12T06:53:48.040Z,368
2018-10-12T06:56:33.192Z,352
2018-10-12T06:57:33.700Z,344
2018-10-12T06:58:31.885Z,340
2018-10-12T06:59:31.694Z,344
2018-10-12T07:00:31.757Z,348
2018-10-12T07:01:32.011Z,360
2018-10-12T07:02:30.776Z,380
2018-10-12T07:03:29.362Z,404
2018-10-12T07:04:31.206Z,424
2018-10-12T07:05:29.898Z,444
2018-10-12T07:06:29.402Z,444
2018-10-12T07:07:31.703Z,456
2018-10-12T07:10:15.740Z,444
2018-10-12T07:11:15.234Z,448
2018-10-12T07:12:19.736Z,472
2018-10-12T07:13:19.383Z,472
2018-10-12T07:14:18.012Z,464
2018-10-12T07:15:18.711Z,460
2018-10-12T07:16:19.198Z,468
2018-10-12T07:19:00.726Z,476
2018-10-12T07:19:58.389Z,484
2018-10-12T07:22:39.356Z,460
2018-10-12T07:23:39.248Z,460
2018-10-12T07:24:38.716Z,452
2018-10-12T07:25:44.280Z,452
2018-10-12T07:26:44.326Z,460
2018-10-12T07:27:42.771Z,476
2018-10-12T07:28:43.214Z,480
2018-10-12T07:29:41.707Z,484
2018-10-12T07:30:41.806Z,480
2018-10-12T07:31:40.434Z,468
2018-10-12T07:32:41.707Z,456
2018-10-12T07:33:40.226Z,444
2018-10-12T07:34:37.868Z,440
2018-10-12T07:35:39.218Z,432
2018-10-12T07:36:39.222Z,432
2018-10-12T07:37:38.996Z,420
2018-10-12T07:38:40.250Z,420
2018-10-12T07:39:39.212Z,452
2018-10-12T07:40:37.221Z,452
2018-10-12T07:41:38.216Z,420
2018-10-12T07:42:37.669Z,428
2018-10-12T07:43:38.725Z,456
2018-10-12T07:44:36.745Z,576
2018-10-12T07:45:35.776Z,548
2018-10-12T07:49:18.746Z,620
2018-10-12T07:50:17.002Z,608
2018-10-12T07:53:01.906Z,592
2018-10-12T07:54:01.124Z,588
2018-10-12T07:55:02.721Z,580
2018-10-12T07:56:01.483Z,580
2018-10-12T07:57:01.821Z,588
2018-10-12T07:58:01.879Z,576
2018-10-12T07:59:02.218Z,580
2018-10-12T08:17:28.932Z,580
2018-10-12T08:18:27.492Z,576
2018-10-12T08:19:27.252Z,576
2018-10-12T08:20:25.837Z,580
2018-10-12T08:21:27.733Z,580
2018-10-12T08:22:26.980Z,580
2018-10-12T08:23:26.545Z,580
2018-10-12T08:24:25.742Z,580
2018-10-12T08:25:24.753Z,580
2018-10-12T08:26:24.788Z,584
2018-10-12T08:27:23.246Z,584
2018-10-12T08:28:22.248Z,580
2018-10-12T08:29:20.299Z,584
2018-10-12T08:30:20.360Z,584
2018-10-12T08:31:19.836Z,580
2018-10-12T08:32:21.187Z,580
2018-10-12T08:33:20.793Z,584
2018-10-12T08:34:20.390Z,580
2018-10-12T08:35:18.962Z,588
2018-10-12T08:36:18.350Z,588
2018-10-12T08:37:19.809Z,588
2018-10-12T08:38:18.761Z,588
2018-10-12T08:39:21.743Z,588
2018-10-12T08:40:20.383Z,588
2018-10-12T08:41:21.278Z,588
2018-10-12T08:42:19.129Z,592
2018-10-12T08:43:18.430Z,588
2018-10-12T08:44:18.246Z,596
2018-10-12T08:45:18.242Z,596
2018-10-12T08:46:16.430Z,608
2018-10-12T08:47:16.299Z,596
2018-10-12T08:48:16.314Z,600
2018-10-12T08:49:17.350Z,600
2018-10-12T08:50:17.360Z,608
2018-10-12T08:51:17.577Z,612
2018-10-12T08:52:18.833Z,604
2018-10-12T08:53:17.958Z,608
2018-10-12T08:54:18.744Z,612
2018-10-12T08:55:16.043Z,616
2018-10-12T08:56:15.152Z,620
2018-10-12T08:57:24.260Z,624
2018-10-12T08:58:24.275Z,624
2018-10-12T08:59:23.268Z,628
2018-10-12T09:00:21.629Z,628
2018-10-12T09:05:07.966Z,648
2018-10-12T09:06:17.449Z,648
2018-10-12T09:07:28.975Z,652
2018-10-12T09:08:34.519Z,664
2018-10-12T09:09:41.493Z,664
2018-10-12T09:11:17.443Z,668
2018-10-12T09:12:45.942Z,672
2018-10-12T09:14:02.997Z,684
2018-10-12T09:16:51.073Z,688
2018-10-12T09:18:11.545Z,692
2018-10-12T09:19:22.065Z,696
2018-10-12T09:20:21.584Z,704
2018-10-12T09:21:31.057Z,704
2018-10-12T09:22:42.556Z,704
2018-10-12T09:23:52.569Z,712
2018-10-12T09:25:00.559Z,712
2018-10-12T09:26:01.559Z,720
2018-10-12T09:27:09.572Z,724
2018-10-12T09:28:22.559Z,724
2018-10-12T09:29:30.549Z,728
2018-10-12T09:30:38.055Z,728
2018-10-12T09:34:49.136Z,744
2018-10-12T09:38:37.053Z,752
2018-10-12T09:39:51.055Z,764
2018-10-12T09:40:57.062Z,768
2018-10-12T09:42:00.578Z,768
2018-10-12T09:43:09.554Z,772
2018-10-12T09:44:29.557Z,768
2018-10-12T09:48:12.653Z,776
2018-10-12T09:49:17.152Z,780
2018-10-12T09:52:37.462Z,784
2018-10-12T09:59:26.402Z,804
2018-10-12T10:00:46.418Z,804
2018-10-12T10:01:44.948Z,808
2018-10-12T10:02:42.796Z,812
2018-10-12T10:03:41.998Z,808
2018-10-12T10:04:45.415Z,816
2018-10-12T10:05:42.925Z,816
2018-10-12T10:06:41.497Z,816
2018-10-12T10:07:43.941Z,820
2018-10-12T10:08:43.911Z,824
2018-10-12T10:09:42.401Z,824
2018-10-12T10:10:41.917Z,828
2018-10-12T10:11:41.944Z,832
2018-10-12T10:12:41.426Z,832
2018-10-12T10:13:39.961Z,836
2018-10-12T10:14:44.098Z,840
2018-10-12T10:15:43.258Z,836
2018-10-12T10:16:43.456Z,840
2018-10-12T10:17:43.421Z,840
2018-10-12T10:21:24.157Z,864
2018-10-12T10:22:24.672Z,860
2018-10-12T10:23:26.004Z,856
2018-10-12T10:24:25.175Z,860
2018-10-12T10:25:23.576Z,864
2018-10-12T10:26:26.560Z,864
2018-10-12T10:27:24.515Z,860
2018-10-12T10:28:24.513Z,852
2018-10-12T10:29:25.967Z,844
2018-10-12T10:30:28.263Z,868
2018-10-12T10:31:27.336Z,864
2018-10-12T10:32:27.038Z,860
2018-10-12T10:33:43.167Z,876
2018-10-12T10:34:43.668Z,880
2018-10-12T10:35:43.687Z,884
2018-10-12T10:36:46.168Z,880
2018-10-12T10:37:46.298Z,880
2018-10-12T10:38:50.353Z,880
2018-10-12T10:39:48.617Z,880
2018-10-12T10:43:31.270Z,888
2018-10-12T10:44:36.584Z,892
2018-10-12T10:45:38.167Z,888
2018-10-12T10:46:36.628Z,896
2018-10-12T10:47:42.355Z,892
2018-10-12T10:48:41.608Z,896
2018-10-12T10:50:59.630Z,900
2018-10-12T10:52:03.169Z,896
2018-10-12T10:52:59.614Z,900
2018-10-12T10:54:03.159Z,900
2018-10-12T10:56:43.162Z,904
2018-10-12T10:57:41.778Z,900
2018-10-12T10:58:40.483Z,900
2018-10-12T10:59:41.024Z,904
2018-10-12T11:00:40.697Z,904
2018-10-12T11:01:40.165Z,904
2018-10-12T11:02:40.676Z,900
2018-10-12T11:03:38.677Z,904
2018-10-12T11:04:41.668Z,904
2018-10-12T11:05:40.847Z,904
2018-10-12T11:06:39.548Z,900
2018-10-12T11:07:38.112Z,900
2018-10-12T11:08:37.672Z,904
2018-10-12T11:09:37.127Z,900
2018-10-12T11:10:35.646Z,904
2018-10-12T11:11:37.159Z,900
2018-10-12T11:12:37.747Z,896
2018-10-12T11:13:37.691Z,908
2018-10-12T11:14:36.532Z,904
2018-10-12T11:15:36.184Z,904
2018-10-12T11:16:34.274Z,904
2018-10-12T11:17:35.753Z,896
2018-10-12T11:18:35.688Z,900
2018-10-12T11:19:34.386Z,904
2018-10-12T11:20:33.472Z,904
2018-10-12T11:21:32.020Z,904
2018-10-12T11:22:34.250Z,900
2018-10-12T11:23:32.681Z,900
2018-10-12T11:26:14.734Z,904
2018-10-12T11:27:12.742Z,908
2018-10-12T11:28:14.188Z,908
2018-10-12T11:29:14.576Z,904
2018-10-12T11:30:14.643Z,916
2018-10-12T11:32:56.816Z,916
2018-10-12T11:33:56.195Z,916
2018-10-12T11:34:58.126Z,924
2018-10-12T11:35:57.110Z,928
2018-10-12T11:38:22.816Z,932
2018-10-12T11:39:23.755Z,932
2018-10-12T11:40:23.868Z,940
2018-10-12T11:43:06.199Z,932
2018-10-12T11:44:05.567Z,932
2018-10-12T11:45:06.341Z,924
2018-10-12T11:46:07.332Z,912
2018-10-12T11:47:08.698Z,908
2018-10-12T11:48:06.692Z,908
2018-10-12T11:49:04.586Z,908
2018-10-12T11:50:03.192Z,908
2018-10-12T11:51:04.208Z,900
2018-10-12T11:52:03.199Z,892
2018-10-12T11:55:46.210Z,868
2018-10-12T11:56:44.018Z,860
2018-10-12T12:00:28.456Z,856
2018-10-12T12:01:28.042Z,840
2018-10-12T12:02:28.786Z,844
2018-10-12T12:03:28.746Z,840
2018-10-12T12:04:29.374Z,836
2018-10-12T12:05:29.643Z,380
2018-10-12T12:07:53.887Z,2072
2018-10-12T12:08:52.459Z,2064
2018-10-12T12:09:58.644Z,1976
2018-10-12T12:11:00.700Z,1712
2018-10-12T12:11:58.412Z,2040
2018-10-12T12:12:58.221Z,2024
2018-10-12T12:13:58.333Z,2024
2018-10-12T12:16:39.212Z,2012
2018-10-12T12:17:37.044Z,1996
2018-10-12T12:18:36.600Z,1988
2018-10-12T12:22:20.220Z,1968
2018-10-12T12:23:18.704Z,1952
2018-10-12T12:26:05.242Z,1948
2018-10-12T12:27:03.222Z,1956
2018-10-12T12:28:02.280Z,1952
2018-10-12T12:29:01.219Z,1968
2018-10-12T12:29:59.675Z,1952
2018-10-12T12:31:00.722Z,1964
2018-10-12T12:32:01.220Z,1956
2018-10-12T12:34:24.088Z,1960
2018-10-12T12:35:23.081Z,1948
2018-10-12T12:39:04.221Z,1928
2018-10-12T12:40:01.897Z,1920
2018-10-12T12:44:41.696Z,1908
2018-10-12T12:45:40.797Z,1904
2018-10-12T12:46:41.326Z,1896
2018-10-12T12:47:40.394Z,1888
2018-10-12T12:48:43.142Z,1884
2018-10-12T12:49:41.468Z,1864
2018-10-12T12:50:41.305Z,1868
2018-10-12T12:51:40.271Z,1860
2018-10-12T12:52:38.932Z,1852
2018-10-12T12:53:41.416Z,1840
2018-10-12T12:54:42.323Z,1824
2018-10-12T12:55:50.305Z,1796
2018-10-12T12:56:48.613Z,1796
2018-10-12T12:59:24.585Z,1760
2018-10-12T13:03:14.420Z,1644
2018-10-12T13:05:56.455Z,1700
2018-10-12T13:08:37.969Z,1668
2018-10-12T13:09:39.426Z,1708
2018-10-12T13:14:05.562Z,1768
2018-10-12T13:15:05.937Z,1772
2018-10-12T13:16:04.605Z,1772
2018-10-12T13:18:45.691Z,1780
2018-10-12T13:21:27.441Z,1780
2018-10-12T13:22:27.946Z,1796
2018-10-12T13:23:25.888Z,1800
2018-10-12T13:24:26.937Z,1800
2018-10-12T13:27:06.328Z,1796
2018-10-12T13:28:05.616Z,1796
2018-10-12T13:30:51.522Z,1800
2018-10-12T13:31:51.072Z,1800
2018-10-12T13:34:21.487Z,1800
2018-10-12T13:35:23.447Z,1804
2018-10-12T13:39:02.049Z,1832
2018-10-12T13:43:26.027Z,1852
2018-10-12T13:45:51.171Z,1868
2018-10-12T13:46:50.377Z,1920
2018-10-12T13:47:49.947Z,1928
2018-10-12T13:48:48.520Z,1968
2018-10-12T13:49:47.595Z,2004
2018-10-12T13:50:46.195Z,2020
2018-10-12T13:51:45.611Z,2056
2018-10-12T13:52:46.638Z,2084
2018-10-12T13:55:43.126Z,2192
2018-10-12T13:56:42.623Z,2224
2018-10-12T13:57:40.227Z,2256
2018-10-12T13:58:39.588Z,2288
2018-10-12T13:59:40.131Z,2336
2018-10-12T14:00:37.829Z,2376
2018-10-12T14:01:38.120Z,2288
2018-10-12T14:02:36.644Z,2256
2018-10-12T14:03:36.122Z,2252
2018-10-12T14:04:36.124Z,2284
2018-10-12T14:05:35.626Z,2248
2018-10-12T14:06:36.688Z,2236
2018-10-12T14:07:35.906Z,2236
2018-10-12T14:08:34.491Z,2256
2018-10-12T14:09:34.510Z,2236
2018-10-12T14:10:34.123Z,2244
2018-10-12T14:11:34.250Z,2252
2018-10-12T14:12:33.536Z,2256
2018-10-12T14:13:32.087Z,2292
2018-10-12T14:14:37.156Z,2240
2018-10-12T14:15:37.627Z,2204
2018-10-12T14:16:37.153Z,2272
2018-10-12T14:17:37.129Z,2344
2018-10-12T14:18:36.253Z,2328
2018-10-12T14:19:39.132Z,2308
2018-10-12T14:20:38.122Z,2224
2018-10-12T14:21:36.802Z,2268
2018-10-12T14:22:36.774Z,2244
2018-10-12T14:23:36.184Z,2244
2018-10-12T14:24:35.132Z,2240
2018-10-12T14:25:33.202Z,2264
2018-10-12T14:26:31.797Z,2248
2018-10-12T14:27:32.660Z,2224
2018-10-12T14:28:31.175Z,2180
2018-10-12T14:29:31.252Z,2180
2018-10-12T14:30:31.875Z,2196
2018-10-12T14:31:32.389Z,2100
2018-10-12T14:32:31.186Z,2060
2018-10-12T14:33:31.151Z,2060
2018-10-12T14:34:30.694Z,2024
2018-10-12T14:35:30.359Z,1996
2018-10-12T14:36:29.565Z,1956
2018-10-12T14:37:28.252Z,1952
2018-10-12T14:38:29.139Z,1964
2018-10-12T14:39:28.664Z,1904
2018-10-12T14:40:28.161Z,1824
2018-10-12T14:41:25.825Z,1768
2018-10-12T14:42:26.336Z,1732
2018-10-12T14:43:29.137Z,1696
2018-10-12T14:44:27.029Z,1696
2018-10-12T14:45:27.138Z,1644
2018-10-12T14:46:25.668Z,1700
2018-10-12T14:47:25.151Z,1680
2018-10-12T14:48:24.763Z,1708
2018-10-12T14:49:23.368Z,1740
2018-10-12T14:50:22.712Z,1716
2018-10-12T14:51:21.197Z,1776
2018-10-12T14:52:20.301Z,1804
2018-10-12T14:53:20.192Z,1864
2018-10-12T14:54:19.666Z,1920
2018-10-12T14:55:19.159Z,1924
2018-10-12T14:56:17.571Z,1944
2018-10-12T14:57:17.143Z,1948
2018-10-12T14:58:16.643Z,1968
2018-10-12T14:59:13.193Z,1972
2018-10-12T15:00:12.799Z,1980
2018-10-12T15:01:13.188Z,1992
2018-10-12T15:02:13.154Z,2012
2018-10-12T15:03:14.188Z,2008
2018-10-12T15:04:14.291Z,1988
2018-10-12T15:05:13.652Z,2032
2018-10-12T15:06:13.190Z,2044
2018-10-12T15:07:13.187Z,2028
2018-10-12T15:08:12.651Z,1956
2018-10-12T15:09:19.742Z,1940
2018-10-12T15:10:22.669Z,1960
2018-10-12T15:11:21.244Z,1964
2018-10-12T15:12:21.655Z,1936
2018-10-12T15:13:20.311Z,1904
2018-10-12T15:14:19.212Z,1860
2018-10-12T15:15:19.663Z,1832
2018-10-12T15:16:17.433Z,1820
2018-10-12T15:17:16.481Z,1816
2018-10-12T15:18:15.932Z,1812
2018-10-12T15:19:15.101Z,1780
2018-10-12T15:20:14.615Z,1716
2018-10-12T15:21:14.285Z,1664
2018-10-12T15:22:12.812Z,1624
2018-10-12T15:23:12.285Z,1612
2018-10-12T15:24:11.187Z,1632
2018-10-12T15:25:09.772Z,1644
2018-10-12T15:26:08.303Z,1656
2018-10-12T15:27:07.672Z,1664
2018-10-12T15:28:06.665Z,1672
2018-10-12T15:29:04.433Z,1644
2018-10-12T15:30:04.419Z,1616
2018-10-12T15:31:04.509Z,1612
2018-10-12T15:32:06.739Z,1548
2018-10-12T15:33:06.584Z,1500
2018-10-12T15:34:05.749Z,1492
2018-10-12T15:35:10.161Z,1464
2018-10-12T15:36:11.694Z,1444
2018-10-12T15:37:10.309Z,1432
2018-10-12T15:38:09.189Z,1400
2018-10-12T15:39:10.164Z,1376
2018-10-12T15:40:08.176Z,1352
2018-10-12T15:41:09.722Z,1332
2018-10-12T15:42:09.289Z,1304
2018-10-12T15:43:09.332Z,1252
2018-10-12T15:45:32.172Z,1124
2018-10-12T15:46:31.695Z,1088
2018-10-12T15:47:29.575Z,1048
2018-10-12T15:48:30.751Z,1012
2018-10-12T15:49:31.914Z,972
2018-10-12T15:52:13.774Z,880
2018-10-12T15:53:13.675Z,856
2018-10-12T15:54:15.180Z,840
2018-10-12T15:55:12.505Z,828
2018-10-12T15:56:13.652Z,816
2018-10-12T15:57:12.071Z,796
2018-10-12T15:58:11.574Z,780
2018-10-12T15:59:11.116Z,752
2018-10-12T16:00:13.194Z,732
2018-10-12T16:01:12.189Z,724
2018-10-12T16:02:11.474Z,720
2018-10-12T16:03:12.830Z,700
2018-10-12T16:04:12.213Z,688
2018-10-12T16:05:12.869Z,668
2018-10-12T16:06:12.821Z,652
2018-10-12T16:07:13.190Z,636
2018-10-12T16:08:13.246Z,616
2018-10-12T16:09:11.038Z,604
2018-10-12T16:10:09.603Z,588
2018-10-12T16:11:08.695Z,576
2018-10-12T16:12:07.334Z,564
2018-10-12T16:13:05.881Z,552
2018-10-12T16:14:06.193Z,544
2018-10-12T16:15:06.684Z,536
2018-10-12T16:16:04.691Z,524
2018-10-12T16:17:04.273Z,512
2018-10-12T16:18:04.684Z,496
2018-10-12T16:19:04.486Z,472
2018-10-12T16:20:03.962Z,456
2018-10-12T16:21:03.016Z,444
2018-10-12T16:22:05.007Z,428
2018-10-12T16:23:04.271Z,412
2018-10-12T16:24:04.211Z,400
2018-10-12T16:25:02.186Z,384
2018-10-12T16:26:00.851Z,364
2018-10-12T16:27:02.497Z,344
2018-10-12T16:28:02.229Z,328
2018-10-12T16:29:00.893Z,308
2018-10-12T16:29:59.496Z,292
2018-10-12T16:30:58.727Z,276
2018-10-12T16:31:58.692Z,260
2018-10-12T16:32:57.698Z,240
2018-10-12T16:33:56.700Z,224
2018-10-12T16:34:55.189Z,208
2018-10-12T16:35:54.143Z,192
2018-10-12T16:36:54.726Z,176
2018-10-12T16:37:52.665Z,160
2018-10-12T16:38:52.392Z,144
2018-10-12T16:39:53.048Z,136
2018-10-12T16:40:52.372Z,120
2018-10-12T16:41:52.258Z,108
2018-10-12T16:42:54.699Z,96
2018-10-12T16:43:53.289Z,84
2018-10-12T16:44:52.702Z,72
2018-10-12T16:45:51.222Z,64
2018-10-12T16:46:50.707Z,56
2018-10-12T16:47:49.245Z,52
2018-10-12T16:48:51.291Z,44
2018-10-12T16:49:50.563Z,40
2018-10-12T16:50:49.079Z,36
2018-10-12T16:51:48.525Z,28
2018-10-12T16:54:57.202Z,16
2018-10-12T16:55:56.731Z,16
2018-10-12T16:56:59.154Z,12
2018-10-12T16:57:57.930Z,12
2018-10-12T16:58:56.401Z,8
2018-10-12T16:59:56.706Z,8
2018-10-12T17:00:55.864Z,4
2018-10-12T17:01:55.240Z,4
2018-10-12T17:02:55.377Z,4
2018-10-12T17:03:53.920Z,4
2018-10-12T17:04:52.777Z,4
2018-10-12T17:05:52.264Z,0
2018-10-12T17:06:49.971Z,0
2018-10-12T17:07:50.253Z,4
2018-10-12T17:08:48.774Z,4
2018-10-12T17:09:48.876Z,0
2018-10-12T17:10:49.166Z,0
2018-10-12T17:11:49.287Z,0
2018-10-12T17:12:48.653Z,0
2018-10-12T17:13:49.996Z,0
2018-10-12T17:14:53.217Z,0
2018-10-12T17:15:52.364Z,0
2018-10-12T17:16:51.596Z,0
2018-10-12T17:17:51.215Z,0